• Join FlightAware (Why Join?)
  • Login
  • US Flag 
04:57AM EDT


 

Airport Tracker/Info


-or-


 

Live Flight TrackerFlight Track Log ✈ SWA2624 ✈ 26-Jul-2013 ✈ KSEA - KPHX

Flight Track Log - Related Links

Times and Time Zones

All times are in EDT time to prevent confusion due to time zone crossing. See the SWA2624 flight status page for this flight to view local times or setup timezone preferences in your user account.

Time Position Orientation Groundspeed Altitude Reporting Facility
EDT Latitude Longitude Course Direction KTS MPH feet Rate Location/Type
09:19AM 47.4614 -122.3089 North 152 175 1,200  Level Seattle Center
09:19AM 47.4900 -122.3069 North 159 183 2,500 2,520 Climbing Seattle Center
09:20AM 47.5461 -122.3106 358° North 206 237 5,200 2,400 Climbing Seattle Center
09:21AM 47.6039 -122.2825 18° North 249 287 7,400 2,580 Climbing Seattle Center
09:22AM 47.5800 -122.1811 109° East 297 342 10,500 2,880 Climbing Seattle Center
09:23AM 47.4869 -122.1625 172° South 340 391 13,300 3,060 Climbing Seattle Center
09:24AM 47.3886 -122.1411 172° South 353 406 16,700 2,880 Climbing Seattle Center
09:25AM 47.2928 -122.1225 172° South 367 422 19,200 2,520 Climbing Seattle Center
09:26AM 47.1864 -122.1014 172° South 380 437 21,800 2,340 Climbing Seattle Center
09:27AM 47.0764 -122.0789 172° South 396 456 24,000 2,460 Climbing Seattle Center
09:28AM 46.9758 -121.9917 149° Southeast 425 489 26,800 2,280 Climbing Seattle Center
09:29AM 46.8789 -121.8917 145° Southeast 432 497 28,600 1,680 Climbing Seattle Center
09:30AM 46.7767 -121.7881 145° Southeast 447 514 30,300 1,920 Climbing Seattle Center
09:31AM 46.6528 -121.6603 145° Southeast 459 528 32,500 1,800 Climbing Seattle Center
09:32AM 46.5653 -121.5703 145° Southeast 459 528 34,000 1,560 Climbing Seattle Center
09:33AM 46.4606 -121.4656 145° Southeast 459 528 35,700 1,680 Climbing Seattle Center
09:34AM 46.3581 -121.3617 145° Southeast 452 520 37,400 1,500 Climbing Seattle Center
09:35AM 46.2564 -121.2606 145° Southeast 447 514 38,800 780 Climbing Seattle Center
09:36AM 46.1347 -121.1406 146° Southeast 442 509 39,000 60 Climbing Seattle Center
09:38AM 46.0319 -121.0386 145° Southeast 447 514 39,000  Level Seattle Center
09:39AM 45.9292 -120.9353 145° Southeast 450 518 39,000  Level Seattle Center
09:40AM 45.8256 -120.8344 146° Southeast 451 519 39,000  Level Seattle Center
09:41AM 45.7217 -120.7336 146° Southeast 452 520 39,000  Level Seattle Center
09:42AM 45.6161 -120.6308 146° Southeast 457 526 39,000  Level Seattle Center
09:43AM 45.5125 -120.5294 146° Southeast 454 522 39,000  Level Seattle Center
09:44AM 45.4081 -120.4289 146° Southeast 455 524 39,000  Level Seattle Center
09:45AM 45.3031 -120.3303 147° Southeast 455 524 39,000  Level Seattle Center
09:46AM 45.1994 -120.2306 146° Southeast 452 520 39,000  Level Seattle Center
09:47AM 45.0981 -120.1336 146° Southeast 444 511 39,000  Level Seattle Center
09:48AM 44.9886 -120.0297 146° Southeast 449 517 39,000  Level Seattle Center
09:49AM 44.8836 -119.9306 146° Southeast 452 520 39,000  Level Seattle Center
09:50AM 44.7733 -119.8292 147° Southeast 450 518 39,000  Level Seattle Center
09:51AM 44.6711 -119.7331 146° Southeast 446 513 39,000  Level Seattle Center
09:52AM 44.5603 -119.6553 153° Southeast 446 513 39,000  Level Seattle Center
09:53AM 44.4475 -119.5847 156° South 446 513 39,000  Level Seattle Center
09:54AM 44.3342 -119.5144 156° South 445 512 39,000  Level Seattle Center
09:55AM 44.2211 -119.4439 156° South 446 513 39,000  Level Seattle Center
09:56AM 44.1061 -119.3750 157° South 449 517 39,000  Level Seattle Center
09:57AM 43.9933 -119.3053 156° South 447 514 39,000  Level Seattle Center
09:58AM 43.8808 -119.2344 156° South 446 513 39,000  Level Seattle Center
09:59AM 43.7675 -119.1681 157° South 443 510 39,000  Level Seattle Center
10:00AM 43.6572 -119.0931 154° Southeast 442 509 39,000  Level Seattle Center
10:01AM 43.5375 -118.9594 141° Southeast 453 521 39,000  Level Seattle Center
10:02AM 43.4428 -118.8583 142° Southeast 450 518 39,000  Level Seattle Center
10:03AM 43.3486 -118.7558 142° Southeast 451 519 39,000  Level Seattle Center
10:04AM 43.2392 -118.6383 142° Southeast 448 516 39,000  Level Seattle Center
10:05AM 43.1444 -118.5375 142° Southeast 450 518 39,000  Level Seattle Center
10:06AM 43.0506 -118.4375 142° Southeast 449 517 39,000  Level Seattle Center
10:07AM 42.9397 -118.3183 142° Southeast 452 520 39,000  Level Seattle Center
10:08AM 42.8108 -118.1797 142° Southeast 463 533 39,000  Level Salt Lake Center
10:09AM 42.7139 -118.0786 143° Southeast 460 529 39,000  Level Salt Lake Center
10:10AM 42.6014 -117.9614 142° Southeast 457 526 39,000  Level Salt Lake Center
10:11AM 42.5042 -117.8600 142° Southeast 459 528 39,000  Level Salt Lake Center
10:12AM 42.3917 -117.7425 142° Southeast 459 528 39,000  Level Salt Lake Center
10:13AM 42.2942 -117.6431 143° Southeast 459 528 39,000  Level Salt Lake Center
10:14AM 42.1867 -117.5342 143° Southeast 452 520 39,000  Level Salt Lake Center
10:15AM 42.0886 -117.4333 143° Southeast 460 529 39,000  Level Salt Lake Center
10:16AM 41.9753 -117.3161 142° Southeast 459 528 39,000  Level Salt Lake Center
10:17AM 41.8789 -117.2194 143° Southeast 454 522 39,000  Level Salt Lake Center
10:18AM 41.7817 -117.1194 142° Southeast 457 526 39,000  Level Salt Lake Center
10:19AM 41.6700 -117.0089 144° Southeast 447 514 39,000  Level Salt Lake Center
10:21AM 41.5739 -116.9117 143° Southeast 450 518 39,000  Level Salt Lake Center
10:22AM 41.4597 -116.7964 143° Southeast 457 526 39,000  Level Salt Lake Center
10:23AM 41.3631 -116.6989 143° Southeast 456 525 39,000  Level Salt Lake Center
10:24AM 41.2647 -116.6019 143° Southeast 457 526 39,000  Level Salt Lake Center
10:25AM 41.1506 -116.4889 143° Southeast 456 525 39,000  Level Salt Lake Center
10:26AM 41.0522 -116.3928 144° Southeast 457 526 39,000  Level Salt Lake Center
10:27AM 40.9361 -116.2786 143° Southeast 461 531 39,000  Level Salt Lake Center
10:28AM 40.8372 -116.1808 143° Southeast 462 532 39,000  Level Salt Lake Center
10:29AM 40.7225 -116.0683 143° Southeast 458 527 39,000  Level Salt Lake Center
10:30AM 40.6217 -115.9728 144° Southeast 462 532 39,000  Level Salt Lake Center
10:31AM 40.5225 -115.8775 144° Southeast 458 527 39,000  Level Salt Lake Center
10:32AM 40.4108 -115.7672 143° Southeast 450 518 39,000  Level Salt Lake Center
10:33AM 40.3131 -115.6733 144° Southeast 450 518 39,000  Level Salt Lake Center
10:34AM 40.1981 -115.5636 144° Southeast 455 524 39,000  Level Salt Lake Center
10:35AM 40.1003 -115.4714 144° Southeast 453 521 39,000  Level Salt Lake Center
10:36AM 39.9867 -115.3639 144° Southeast 450 518 39,000  Level Salt Lake Center
10:37AM 39.8872 -115.2706 144° Southeast 456 525 39,000  Level Salt Lake Center
10:38AM 39.7883 -115.1769 144° Southeast 457 526 39,000  Level Salt Lake Center
10:39AM 39.6725 -115.0692 144° Southeast 458 527 39,000  Level Salt Lake Center
10:40AM 39.5728 -114.9775 145° Southeast 458 527 39,000  Level Salt Lake Center
10:41AM 39.4564 -114.8686 144° Southeast 460 529 39,000  Level Salt Lake Center
10:42AM 39.3542 -114.7792 146° Southeast 462 532 39,000  Level Salt Lake Center
10:43AM 39.2369 -114.6725 145° Southeast 460 529 39,000  Level Salt Lake Center
10:44AM 39.1453 -114.5844 143° Southeast 459 528 39,000  Level Salt Lake Center
10:45AM 39.0425 -114.4881 144° Southeast 458 527 39,000  Level Salt Lake Center
10:46AM 38.9169 -114.3756 145° Southeast 458 527 39,000  Level Salt Lake Center
10:47AM 38.8139 -114.2811 144° Southeast 457 526 39,000  Level Salt Lake Center
10:48AM 38.7094 -114.1872 145° Southeast 459 528 39,000  Level Salt Lake Center
10:49AM 38.6053 -114.0950 145° Southeast 456 525 39,000  Level Salt Lake Center
10:50AM 38.5019 -114.0014 145° Southeast 455 524 39,000  Level Salt Lake Center
10:51AM 38.3969 -113.9092 145° Southeast 458 527 39,000  Level Salt Lake Center
10:53AM 38.2733 -113.7992 145° Southeast 452 520 39,000  Level Salt Lake Center
10:54AM 38.1697 -113.7069 145° Southeast 454 522 39,000  Level Salt Lake Center
10:55AM 38.0661 -113.6172 146° Southeast 453 521 39,000 -120 Level Salt Lake Center
10:56AM 37.9767 -113.5047 135° Southeast 460 529 38,800 -540 Descending Salt Lake Center
10:57AM 37.9131 -113.3603 119° Southeast 469 540 37,900 -900 Descending Salt Lake Center
10:58AM 37.8489 -113.2181 120° Southeast 467 537 37,000 -960 Descending Salt Lake Center
10:59AM 37.7883 -113.0350 113° Southeast 471 542 36,000 -540 Descending Salt Lake Center
11:00AM 37.7417 -112.8814 111° Southeast 465 535 36,000  Level Salt Lake Center
11:01AM 37.6419 -112.7778 141° Southeast 452 520 36,000  Level Salt Lake Center
11:02AM 37.5222 -112.7128 157° South 452 520 36,000  Level Salt Lake Center
11:03AM 37.4006 -112.6875 171° South 440 506 36,000  Level Salt Lake Center
11:04AM 37.3053 -112.6675 171° South 435 501 36,000  Level Los Angeles Center
11:05AM 37.1844 -112.6406 170° South 438 504 36,000  Level Los Angeles Center
11:06AM 37.0647 -112.6136 170° South 437 503 36,000  Level Los Angeles Center
11:07AM 36.9467 -112.5869 170° South 431 496 36,000  Level Los Angeles Center
11:08AM 36.8267 -112.5611 170° South 435 501 36,000  Level Los Angeles Center
11:09AM 36.7069 -112.5353 170° South 436 502 36,000 -660 Level Los Angeles Center
11:10AM 36.5642 -112.5033 170° South 435 501 34,700 -1,500 Descending Los Angeles Center
11:11AM 36.4689 -112.4828 170° South 435 501 33,000 -840 Descending Los Angeles Center
11:12AM 36.3250 -112.4506 170° South 436 502 33,000 -180 Level Los Angeles Center
11:13AM 36.1956 -112.4239 171° South 464 534 32,700 -720 Descending Los Angeles Center
11:14AM 36.0706 -112.4000 171° South 457 526 31,600 -1,020 Descending Los Angeles Center
11:15AM 35.9289 -112.4075 182° South 452 520 30,600 -1,080 Descending Los Angeles Center
11:16AM 35.8067 -112.4131 182° South 442 509 29,400 -780 Descending Los Angeles Center
11:17AM 35.6867 -112.4192 182° South 435 501 29,000 -240 Descending Los Angeles Center
11:18AM 35.5658 -112.4242 182° South 433 498 29,000  Level Los Angeles Center
11:19AM 35.4461 -112.4358 185° South 429 494 29,000  Level Los Angeles Center
11:20AM 35.3733 -112.4331 178° South 429 494 29,000  Level Albuquerque Center
11:21AM 35.2539 -112.4058 169° South 433 498 29,000  Level Albuquerque Center
11:22AM 35.1458 -112.4478 198° South 435 501 29,000 -540 Level Albuquerque Center
11:23AM 35.0519 -112.5419 219° Southwest 437 503 27,900 -2,100 Descending Albuquerque Center
11:24AM 34.9392 -112.6500 218° Southwest 431 496 24,700 -2,520 Descending Albuquerque Center
11:25AM 34.8492 -112.7367 218° Southwest 421 484 22,800 -1,500 Descending Albuquerque Center
11:26AM 34.7658 -112.8172 218° Southwest 397 457 21,600 -1,080 Descending Albuquerque Center
11:27AM 34.6842 -112.8919 217° Southwest 376 433 20,600 -780 Descending Albuquerque Center
11:28AM 34.6006 -112.9583 213° Southwest 366 421 20,000 -300 Descending Albuquerque Center
11:29AM 34.5128 -113.0192 210° Southwest 367 422 20,000  Level Albuquerque Center
11:30AM 34.4086 -113.0811 206° Southwest 360 414 20,000  Level Albuquerque Center
11:31AM 34.3153 -113.1283 203° Southwest 367 422 20,000  Level Albuquerque Center
11:32AM 34.2156 -113.1475 189° South 364 419 20,000  Level Albuquerque Center
11:33AM 34.1161 -113.1639 188° South 364 419 20,000  Level Albuquerque Center
11:34AM 33.9939 -113.1633 180° South 365 420 20,000  Level Albuquerque Center
11:35AM 33.8928 -113.1861 191° South 369 425 20,000  Level Albuquerque Center
11:36AM 33.7942 -113.2189 195° South 371 427 20,000  Level Albuquerque Center
11:37AM 33.6933 -113.2392 189° South 369 425 20,000 -600 Level Albuquerque Center
11:38AM 33.5958 -113.2583 189° South 369 425 18,800 -1,260 Descending Albuquerque Center
11:39AM 33.4908 -113.1822 149° Southeast 363 418 17,500 -1,080 Descending Albuquerque Center
11:40AM 33.3992 -113.1356 157° South 360 414 16,600 -960 Descending Albuquerque Center
11:41AM 33.3083 -113.0869 156° South 358 412 15,600 -1,320 Descending Albuquerque Center
11:43AM 33.2781 -112.9472 104° East 325 374 13,400 -1,560 Descending Albuquerque Center
11:44AM 33.2797 -112.8422 89° East 318 366 11,800 -1,320 Descending Albuquerque Center
11:45AM 33.3050 -112.7533 71° East 282 325 10,700 -1,080 Descending Albuquerque Center
11:46AM 33.3431 -112.6536 65° Northeast 273 314 9,600 -1,020 Descending Albuquerque Center
11:47AM 33.3744 -112.5708 66° East 272 313 8,600 -780 Descending Albuquerque Center
11:48AM 33.4036 -112.4956 65° Northeast 251 289 8,000 -780 Descending Albuquerque Center
11:49AM 33.4292 -112.4194 68° East 249 287 7,000 -960 Descending Albuquerque Center
11:50AM 33.4281 -112.3386 91° East 243 280 6,100 -1,020 Descending Albuquerque Center
11:51AM 33.4289 -112.2600 89° East 239 275 4,900 -1,260 Descending Albuquerque Center
11:52AM 33.4286 -112.1731 90° East 219 252 3,500 -1,200 Descending Albuquerque Center
11:53AM 33.4286 -112.1183 90° East 171 197 2,500 -900 Descending Albuquerque Center
11:54AM 33.4333 -112.0833 81° East 146 168 2,100 -720 Descending Phoenix TRACON
11:55AM 33.4294 -112.0250 95° East 137 158 1,100 -660 Descending Albuquerque Center
11:57AM 33.4343 -112.0116 90° East  Level Estimated